createdAt,value
2018-12-02T00:00:28.299Z,27.10
2018-12-02T00:01:28.224Z,29.30
2018-12-02T00:02:28.136Z,25.60
2018-12-02T00:03:28.049Z,24.70
2018-12-02T00:04:27.962Z,26.30
2018-12-02T00:05:27.878Z,26.90
2018-12-02T00:06:27.787Z,22.40
2018-12-02T00:07:27.700Z,24.30
2018-12-02T00:08:27.613Z,23.20
2018-12-02T00:09:27.550Z,24.40
2018-12-02T00:10:27.453Z,20.40
2018-12-02T00:11:27.361Z,22.80
2018-12-02T00:12:27.277Z,20.10
2018-12-02T00:13:27.189Z,23.00
2018-12-02T00:14:27.101Z,23.40
2018-12-02T00:15:27.013Z,24.90
2018-12-02T00:16:26.956Z,26.30
2018-12-02T00:17:26.850Z,27.10
2018-12-02T00:18:26.763Z,19.40
2018-12-02T00:19:26.675Z,24.40
2018-12-02T00:20:26.590Z,23.20
2018-12-02T00:21:26.502Z,21.50
2018-12-02T00:22:26.426Z,25.10
2018-12-02T00:23:26.338Z,23.60
2018-12-02T00:24:26.251Z,22.90
2018-12-02T00:25:26.178Z,23.40
2018-12-02T00:26:26.078Z,23.80
2018-12-02T00:27:25.989Z,22.40
2018-12-02T00:28:25.902Z,24.10
2018-12-02T00:29:25.814Z,25.00
2018-12-02T00:30:25.739Z,22.40
2018-12-02T00:31:25.653Z,22.00
2018-12-02T00:32:25.564Z,22.70
2018-12-02T00:33:25.478Z,22.00
2018-12-02T00:34:25.390Z,22.90
2018-12-02T00:35:25.302Z,23.20
2018-12-02T00:36:25.214Z,22.00
2018-12-02T00:37:25.129Z,20.90
2018-12-02T00:38:25.053Z,22.60
2018-12-02T00:39:24.965Z,21.40
2018-12-02T00:40:24.879Z,20.90
2018-12-02T00:41:24.790Z,24.60
2018-12-02T00:42:24.704Z,21.40
2018-12-02T00:43:24.629Z,20.10
2018-12-02T00:44:24.529Z,20.30
2018-12-02T00:45:24.454Z,20.40
2018-12-02T00:46:24.366Z,19.10
2018-12-02T00:47:24.280Z,22.60
2018-12-02T00:48:24.191Z,22.40
2018-12-02T00:49:24.107Z,21.00
2018-12-02T00:50:24.018Z,20.20
2018-12-02T00:51:23.929Z,19.00
2018-12-02T00:52:23.855Z,16.90
2018-12-02T00:53:23.767Z,19.20
2018-12-02T00:54:23.680Z,20.90
2018-12-02T00:55:23.592Z,20.10
2018-12-02T00:56:24.198Z,17.50
2018-12-02T00:57:23.417Z,18.90
2018-12-02T00:58:23.331Z,20.60
2018-12-02T00:59:23.243Z,20.40
2018-12-02T01:00:23.167Z,18.80
2018-12-02T01:01:23.082Z,21.00
2018-12-02T01:02:22.993Z,22.30
2018-12-02T01:03:22.906Z,18.00
2018-12-02T01:04:22.818Z,20.30
2018-12-02T01:05:22.734Z,17.90
2018-12-02T01:06:22.656Z,17.60
2018-12-02T01:07:22.569Z,18.20
2018-12-02T01:08:22.491Z,18.90
2018-12-02T01:09:22.406Z,20.20
2018-12-02T01:10:22.307Z,18.70
2018-12-02T01:11:22.219Z,19.80
2018-12-02T01:12:22.143Z,20.50
2018-12-02T01:13:22.056Z,17.80
2018-12-02T01:14:21.969Z,17.60
2018-12-02T01:15:21.885Z,18.60
2018-12-02T01:16:21.795Z,19.00
2018-12-02T01:17:21.707Z,17.90
2018-12-02T01:18:21.619Z,17.00
2018-12-02T01:19:21.533Z,18.20
2018-12-02T01:20:21.458Z,18.30
2018-12-02T01:21:21.369Z,18.80
2018-12-02T01:22:21.284Z,17.60
2018-12-02T01:23:21.194Z,20.70
2018-12-02T01:24:21.109Z,19.60
2018-12-02T01:25:21.032Z,20.20
2018-12-02T01:26:20.945Z,19.60
2018-12-02T01:27:20.859Z,19.70
2018-12-02T01:28:20.770Z,17.70
2018-12-02T01:29:20.683Z,19.30
2018-12-02T01:30:20.596Z,18.80
2018-12-02T01:31:20.511Z,19.00
2018-12-02T01:32:20.434Z,16.60
2018-12-02T01:33:20.345Z,20.10
2018-12-02T01:34:20.259Z,19.00
2018-12-02T01:35:20.174Z,17.50
2018-12-02T01:36:20.085Z,19.70
2018-12-02T01:37:19.996Z,19.00
2018-12-02T01:38:19.909Z,19.20
2018-12-02T01:39:19.823Z,18.80
2018-12-02T01:40:19.749Z,19.00
2018-12-02T01:41:19.659Z,16.80
2018-12-02T01:42:19.584Z,18.50
2018-12-02T01:43:19.485Z,15.30
2018-12-02T01:44:19.399Z,18.00
2018-12-02T01:45:19.313Z,17.10
2018-12-02T01:46:19.234Z,18.20
2018-12-02T01:47:19.147Z,18.50
2018-12-02T01:48:19.060Z,15.20
2018-12-02T01:49:18.972Z,18.50
2018-12-02T01:50:18.888Z,17.30
2018-12-02T01:51:18.798Z,18.70
2018-12-02T01:52:18.723Z,18.10
2018-12-02T01:53:18.636Z,17.70
2018-12-02T01:54:18.548Z,16.40
2018-12-02T01:55:18.464Z,20.00
2018-12-02T01:56:18.373Z,18.80
2018-12-02T01:57:18.287Z,17.10
2018-12-02T01:58:18.211Z,17.30
2018-12-02T01:59:18.123Z,18.50
2018-12-02T02:00:18.037Z,17.50
2018-12-02T02:01:17.949Z,15.20
2018-12-02T02:02:17.873Z,17.30
2018-12-02T02:03:17.773Z,17.50
2018-12-02T02:04:17.688Z,18.40
2018-12-02T02:05:17.614Z,16.60
2018-12-02T02:06:17.524Z,16.00
2018-12-02T02:07:17.441Z,16.20
2018-12-02T02:08:17.351Z,18.90
2018-12-02T02:09:17.263Z,15.30
2018-12-02T02:10:17.176Z,17.50
2018-12-02T02:11:17.102Z,19.00
2018-12-02T02:12:17.015Z,15.30
2018-12-02T02:13:16.925Z,16.80
2018-12-02T02:14:16.841Z,16.60
2018-12-02T02:15:17.557Z,15.60
2018-12-02T02:16:16.710Z,18.20
2018-12-02T02:17:16.592Z,15.90
2018-12-02T02:18:16.500Z,18.10
2018-12-02T02:19:16.413Z,16.60
2018-12-02T02:20:16.325Z,16.10
2018-12-02T02:21:16.239Z,16.20
2018-12-02T02:22:16.152Z,15.90
2018-12-02T02:23:16.082Z,17.10
2018-12-02T02:24:15.992Z,17.40
2018-12-02T02:25:15.901Z,15.40
2018-12-02T02:26:15.816Z,14.60
2018-12-02T02:27:15.731Z,16.10
2018-12-02T02:28:15.640Z,16.70
2018-12-02T02:29:15.565Z,15.40
2018-12-02T02:30:15.479Z,15.80
2018-12-02T02:31:15.392Z,13.80
2018-12-02T02:32:15.306Z,16.70
2018-12-02T02:33:15.215Z,16.60
2018-12-02T02:34:15.128Z,14.80
2018-12-02T02:35:15.053Z,14.60
2018-12-02T02:36:14.965Z,16.80
2018-12-02T02:37:14.877Z,15.50
2018-12-02T02:38:14.794Z,16.90
2018-12-02T02:39:14.704Z,15.10
2018-12-02T02:40:14.616Z,15.60
2018-12-02T02:41:14.542Z,14.90
2018-12-02T02:42:14.453Z,16.30
2018-12-02T02:43:14.366Z,14.70
2018-12-02T02:44:14.280Z,14.10
2018-12-02T02:45:14.192Z,14.30
2018-12-02T02:46:14.106Z,15.10
2018-12-02T02:47:14.029Z,14.80
2018-12-02T02:48:13.942Z,16.10
2018-12-02T02:49:13.855Z,14.20
2018-12-02T02:50:13.767Z,15.80
2018-12-02T02:51:13.679Z,14.70
2018-12-02T02:52:13.605Z,13.00
2018-12-02T02:53:13.520Z,15.00
2018-12-02T02:54:13.446Z,15.20
2018-12-02T02:55:13.357Z,16.90
2018-12-02T02:56:13.255Z,13.60
2018-12-02T02:57:13.174Z,14.70
2018-12-02T02:58:13.093Z,15.00
2018-12-02T02:59:13.007Z,13.10
2018-12-02T03:00:12.928Z,13.30
2018-12-02T03:01:12.830Z,14.30
2018-12-02T03:02:12.743Z,14.70
2018-12-02T03:03:12.656Z,15.10
2018-12-02T03:04:12.581Z,13.50
2018-12-02T03:05:12.498Z,15.40
2018-12-02T03:06:12.407Z,12.80
2018-12-02T03:07:12.319Z,13.90
2018-12-02T03:08:12.231Z,13.30
2018-12-02T03:09:12.146Z,13.50
2018-12-02T03:10:12.073Z,14.10
2018-12-02T03:11:11.981Z,13.80
2018-12-02T03:12:11.894Z,13.10
2018-12-02T03:13:11.806Z,13.60
2018-12-02T03:14:11.720Z,14.90
2018-12-02T03:15:11.647Z,15.20
2018-12-02T03:16:11.570Z,14.10
2018-12-02T03:17:11.472Z,14.90
2018-12-02T03:18:11.382Z,17.30
2018-12-02T03:19:11.295Z,14.40
2018-12-02T03:20:11.207Z,14.40
2018-12-02T03:21:11.132Z,14.00
2018-12-02T03:22:11.045Z,14.20
2018-12-02T03:23:10.957Z,16.20
2018-12-02T03:24:10.888Z,13.30
2018-12-02T03:25:10.782Z,16.30
2018-12-02T03:26:10.721Z,16.40
2018-12-02T03:27:10.621Z,15.40
2018-12-02T03:28:10.533Z,14.60
2018-12-02T03:29:10.448Z,13.20
2018-12-02T03:30:10.359Z,13.30
2018-12-02T03:31:10.288Z,12.80
2018-12-02T03:32:10.198Z,13.10
2018-12-02T03:33:10.111Z,13.30
2018-12-02T03:34:10.021Z,15.80
2018-12-02T03:35:09.936Z,13.50
2018-12-02T03:36:09.847Z,12.70
2018-12-02T03:37:09.760Z,13.00
2018-12-02T03:38:09.688Z,14.30
2018-12-02T03:39:09.597Z,13.70
2018-12-02T03:40:09.510Z,16.10
2018-12-02T03:41:09.422Z,14.20
2018-12-02T03:42:09.347Z,12.60
2018-12-02T03:43:09.260Z,11.90
2018-12-02T03:44:09.173Z,12.90
2018-12-02T03:45:09.085Z,13.30
2018-12-02T03:46:09.584Z,13.00
2018-12-02T03:47:08.910Z,14.40
2018-12-02T03:48:08.835Z,14.00
2018-12-02T03:49:08.751Z,13.40
2018-12-02T03:50:08.661Z,12.60
2018-12-02T03:51:08.575Z,12.90
2018-12-02T03:52:08.500Z,13.10
2018-12-02T03:53:08.413Z,12.80
2018-12-02T03:54:08.326Z,12.10
2018-12-02T03:55:08.237Z,12.40
2018-12-02T03:56:08.150Z,12.70
2018-12-02T03:57:08.061Z,12.70
2018-12-02T03:58:07.986Z,13.80
2018-12-02T03:59:07.900Z,12.60
2018-12-02T04:00:07.812Z,14.30
2018-12-02T04:01:07.726Z,12.90
2018-12-02T04:02:07.638Z,11.80
2018-12-02T04:03:07.553Z,13.30
2018-12-02T04:04:07.551Z,11.40
2018-12-02T04:05:07.387Z,12.50
2018-12-02T04:06:07.302Z,13.10
2018-12-02T04:07:07.214Z,13.00
2018-12-02T04:08:07.126Z,12.60
2018-12-02T04:09:07.051Z,13.60
2018-12-02T04:10:06.964Z,14.10
2018-12-02T04:11:06.877Z,11.90
2018-12-02T04:12:06.789Z,13.10
2018-12-02T04:13:06.703Z,12.70
2018-12-02T04:14:06.631Z,12.00
2018-12-02T04:15:06.539Z,13.80
2018-12-02T04:16:06.453Z,13.90
2018-12-02T04:17:06.363Z,12.80
2018-12-02T04:18:06.279Z,11.90
2018-12-02T04:19:06.202Z,10.90
2018-12-02T04:20:06.116Z,11.60
2018-12-02T04:21:06.028Z,11.00
2018-12-02T04:22:05.940Z,13.10
2018-12-02T04:23:05.853Z,12.10
2018-12-02T04:24:05.779Z,12.40
2018-12-02T04:25:05.689Z,12.60
2018-12-02T04:26:05.609Z,12.60
2018-12-02T04:27:05.516Z,12.80
2018-12-02T04:28:05.429Z,11.50
2018-12-02T04:29:05.354Z,12.40
2018-12-02T04:30:05.268Z,13.00
2018-12-02T04:31:05.182Z,14.40
2018-12-02T04:32:05.091Z,11.30
2018-12-02T04:33:05.005Z,12.00
2018-12-02T04:34:04.930Z,12.90
2018-12-02T04:35:04.841Z,10.60
2018-12-02T04:36:04.755Z,15.50
2018-12-02T04:37:04.667Z,13.70
2018-12-02T04:38:04.580Z,12.00
2018-12-02T04:39:04.506Z,13.20
2018-12-02T04:40:04.417Z,12.60
2018-12-02T04:41:04.333Z,14.30
2018-12-02T04:42:04.243Z,12.60
2018-12-02T04:43:04.171Z,15.60
2018-12-02T04:44:04.081Z,14.50
2018-12-02T04:45:03.992Z,15.70
2018-12-02T04:46:03.905Z,13.20
2018-12-02T04:47:03.819Z,17.10
2018-12-02T04:48:03.731Z,14.60
2018-12-02T04:49:03.656Z,14.60
2018-12-02T04:50:03.568Z,14.80
2018-12-02T04:51:03.491Z,15.00
2018-12-02T04:52:03.394Z,13.70
2018-12-02T04:53:03.307Z,12.90
2018-12-02T04:54:03.232Z,16.40
2018-12-02T04:55:03.159Z,13.00
2018-12-02T04:56:03.056Z,13.80
2018-12-02T04:57:02.970Z,13.90
2018-12-02T04:58:02.886Z,14.30
2018-12-02T04:59:02.807Z,13.80
2018-12-02T05:00:02.719Z,13.80
2018-12-02T05:01:02.634Z,13.80
2018-12-02T05:02:02.558Z,15.00
2018-12-02T05:03:02.458Z,14.80
2018-12-02T05:04:02.389Z,13.10
2018-12-02T05:05:02.303Z,13.70
2018-12-02T05:06:02.209Z,13.00
2018-12-02T05:07:02.120Z,13.80
2018-12-02T05:08:02.037Z,15.00
2018-12-02T05:09:01.958Z,12.40
2018-12-02T05:10:01.872Z,14.20
2018-12-02T05:11:01.792Z,14.00
2018-12-02T05:12:01.695Z,13.80
2018-12-02T05:13:01.610Z,12.80
2018-12-02T05:14:01.521Z,12.80
2018-12-02T05:15:01.459Z,15.50
2018-12-02T05:16:01.361Z,16.50
2018-12-02T05:17:01.275Z,12.40
2018-12-02T05:18:01.186Z,14.90
2018-12-02T05:19:01.097Z,12.80
2018-12-02T05:20:01.009Z,17.30
2018-12-02T05:21:00.935Z,13.70
2018-12-02T05:22:00.847Z,14.60
2018-12-02T05:23:00.762Z,12.10
2018-12-02T05:24:00.672Z,13.40
2018-12-02T05:25:00.598Z,12.90
2018-12-02T05:26:00.499Z,13.50
2018-12-02T05:27:00.423Z,14.20
2018-12-02T05:28:00.336Z,14.70
2018-12-02T05:29:00.261Z,13.20
2018-12-02T05:30:00.160Z,12.90
2018-12-02T05:31:00.085Z,13.70
2018-12-02T05:32:00.000Z,13.20
2018-12-02T05:32:59.912Z,11.50
2018-12-02T05:33:59.823Z,12.80
2018-12-02T05:34:59.737Z,13.70
2018-12-02T05:35:59.649Z,13.20
2018-12-02T05:36:59.562Z,13.50
2018-12-02T05:37:59.487Z,12.00
2018-12-02T05:38:59.400Z,12.30
2018-12-02T05:39:59.315Z,11.80
2018-12-02T05:40:59.223Z,12.20
2018-12-02T05:41:59.138Z,13.10
2018-12-02T05:42:59.051Z,11.60
2018-12-02T05:43:58.974Z,13.10
2018-12-02T05:44:58.887Z,11.30
2018-12-02T05:45:58.805Z,13.80
2018-12-02T05:46:58.712Z,12.30
2018-12-02T05:47:58.624Z,12.00
2018-12-02T05:48:58.551Z,14.00
2018-12-02T05:49:58.463Z,15.00
2018-12-02T05:50:58.374Z,12.20
2018-12-02T05:51:58.288Z,12.40
2018-12-02T05:52:58.206Z,12.20
2018-12-02T05:53:58.114Z,12.80
2018-12-02T05:54:58.026Z,13.60
2018-12-02T05:55:57.950Z,12.40
2018-12-02T05:56:57.867Z,11.00
2018-12-02T05:57:57.788Z,12.70
2018-12-02T05:58:57.689Z,13.20
2018-12-02T05:59:57.614Z,12.40
2018-12-02T06:00:57.527Z,12.40
2018-12-02T06:01:57.443Z,14.30
2018-12-02T06:02:57.351Z,12.00
2018-12-02T06:03:57.264Z,12.50
2018-12-02T06:04:57.178Z,13.70
2018-12-02T06:05:57.089Z,11.40
2018-12-02T06:06:57.014Z,12.70
2018-12-02T06:07:56.927Z,13.00
2018-12-02T06:08:56.842Z,13.10
2018-12-02T06:09:56.752Z,11.80
2018-12-02T06:10:56.671Z,13.50
2018-12-02T06:11:56.581Z,12.10
2018-12-02T06:12:56.505Z,11.50
2018-12-02T06:13:56.415Z,12.00
2018-12-02T06:14:56.340Z,11.60
2018-12-02T06:15:56.240Z,12.00
2018-12-02T06:16:56.152Z,10.20
2018-12-02T06:17:56.078Z,11.10
2018-12-02T06:18:55.990Z,12.30
2018-12-02T06:19:55.903Z,12.20
2018-12-02T06:20:55.817Z,10.70
2018-12-02T06:21:55.731Z,11.60
2018-12-02T06:22:55.661Z,11.50
2018-12-02T06:23:55.556Z,11.00
2018-12-02T06:24:55.480Z,11.00
2018-12-02T06:25:55.401Z,10.60
2018-12-02T06:26:55.303Z,12.30
2018-12-02T06:27:55.222Z,10.90
2018-12-02T06:28:55.129Z,11.40
2018-12-02T06:29:55.055Z,11.80
2018-12-02T06:30:54.969Z,12.40
2018-12-02T06:31:54.882Z,13.10
2018-12-02T06:32:54.793Z,11.30
2018-12-02T06:33:54.709Z,10.90
2018-12-02T06:34:54.619Z,11.10
2018-12-02T06:35:54.544Z,10.70
2018-12-02T06:36:54.455Z,17.50
2018-12-02T06:37:54.369Z,11.80
2018-12-02T06:38:54.280Z,11.90
2018-12-02T06:39:54.194Z,11.20
2018-12-02T06:40:54.121Z,13.10
2018-12-02T06:41:54.030Z,11.50
2018-12-02T06:42:53.945Z,11.10
2018-12-02T06:43:53.856Z,12.80
2018-12-02T06:44:53.769Z,10.00
2018-12-02T06:45:53.681Z,12.00
2018-12-02T06:46:53.607Z,11.80
2018-12-02T06:47:53.518Z,12.50
2018-12-02T06:48:53.431Z,11.00
2018-12-02T06:49:53.344Z,12.10
2018-12-02T06:50:53.257Z,10.50
2018-12-02T06:51:53.182Z,11.80
2018-12-02T06:52:53.094Z,13.10
2018-12-02T06:53:53.020Z,10.90
2018-12-02T06:54:52.920Z,12.10
2018-12-02T06:55:52.832Z,12.10
2018-12-02T06:56:52.746Z,11.10
2018-12-02T06:57:52.670Z,10.30
2018-12-02T06:58:52.582Z,12.00
2018-12-02T06:59:52.497Z,10.70
2018-12-02T07:00:52.407Z,11.20
2018-12-02T07:01:52.322Z,13.50
2018-12-02T07:02:52.245Z,11.90
2018-12-02T07:03:52.157Z,12.10
2018-12-02T07:04:52.071Z,11.50
2018-12-02T07:05:51.982Z,12.20
2018-12-02T07:06:51.896Z,13.30
2018-12-02T07:07:51.808Z,10.60
2018-12-02T07:08:51.745Z,14.10
2018-12-02T07:09:51.647Z,11.30
2018-12-02T07:10:51.558Z,12.30
2018-12-02T07:11:51.472Z,12.50
2018-12-02T07:12:51.384Z,11.40
2018-12-02T07:13:51.311Z,12.40
2018-12-02T07:14:51.224Z,11.80
2018-12-02T07:15:51.146Z,11.60
2018-12-02T07:16:51.047Z,13.00
2018-12-02T07:17:50.959Z,11.80
2018-12-02T07:18:50.873Z,12.50
2018-12-02T07:19:50.797Z,13.00
2018-12-02T07:20:50.709Z,12.20
2018-12-02T07:21:50.622Z,13.30
2018-12-02T07:22:50.547Z,12.50
2018-12-02T07:23:50.448Z,13.00
2018-12-02T07:24:50.374Z,11.90
2018-12-02T07:25:50.285Z,11.90
2018-12-02T07:26:50.198Z,11.80
2018-12-02T07:27:50.110Z,13.70
2018-12-02T07:28:50.027Z,12.10
2018-12-02T07:29:49.949Z,11.00
2018-12-02T07:30:49.860Z,12.10
2018-12-02T07:31:49.774Z,11.80
2018-12-02T07:32:49.688Z,12.20
2018-12-02T07:33:49.600Z,11.90
2018-12-02T07:34:49.524Z,12.90
2018-12-02T07:35:49.439Z,12.10
2018-12-02T07:36:49.349Z,12.50
2018-12-02T07:37:49.261Z,9.70
2018-12-02T07:38:49.175Z,12.00
2018-12-02T07:39:49.100Z,12.30
2018-12-02T07:40:49.012Z,10.90
2018-12-02T07:41:48.925Z,11.60
2018-12-02T07:42:48.837Z,9.70
2018-12-02T07:43:48.753Z,11.40
2018-12-02T07:44:48.664Z,10.50
2018-12-02T07:45:48.588Z,11.00
2018-12-02T07:46:48.501Z,11.90
2018-12-02T07:47:48.412Z,10.40
2018-12-02T07:48:48.326Z,10.90
2018-12-02T07:49:48.250Z,11.40
2018-12-02T07:50:48.162Z,10.70
2018-12-02T07:51:48.082Z,9.90
2018-12-02T07:52:47.989Z,10.80
2018-12-02T07:53:47.901Z,11.30
2018-12-02T07:54:47.815Z,9.80
2018-12-02T07:55:47.738Z,11.30
2018-12-02T07:56:47.653Z,11.00
2018-12-02T07:57:47.563Z,10.60
2018-12-02T07:58:47.481Z,10.50
2018-12-02T07:59:47.404Z,10.70
2018-12-02T08:00:47.326Z,10.10
2018-12-02T08:01:47.228Z,11.20
2018-12-02T08:02:47.140Z,10.50
2018-12-02T08:03:47.052Z,8.60
2018-12-02T08:04:46.978Z,10.80
2018-12-02T08:05:46.889Z,10.20
2018-12-02T08:06:46.802Z,11.30
2018-12-02T08:07:46.715Z,9.90
2018-12-02T08:08:46.628Z,10.50
2018-12-02T08:09:46.553Z,8.80
2018-12-02T08:10:46.465Z,9.50
2018-12-02T08:11:46.378Z,9.10
2018-12-02T08:12:46.341Z,8.50
2018-12-02T08:13:46.213Z,9.50
2018-12-02T08:14:46.134Z,10.20
2018-12-02T08:15:46.044Z,9.70
2018-12-02T08:16:45.954Z,10.70
2018-12-02T08:17:45.880Z,10.00
2018-12-02T08:18:45.778Z,10.10
2018-12-02T08:19:45.705Z,9.20
2018-12-02T08:20:45.615Z,9.30
2018-12-02T08:21:45.529Z,9.60
2018-12-02T08:22:51.093Z,9.70
2018-12-02T08:23:45.366Z,10.60
2018-12-02T08:24:45.280Z,10.20
2018-12-02T08:25:45.192Z,9.30
2018-12-02T08:26:45.104Z,10.30
2018-12-02T08:27:45.016Z,9.00
2018-12-02T08:28:44.942Z,10.50
2018-12-02T08:29:44.857Z,10.70
2018-12-02T08:30:44.767Z,10.30
2018-12-02T08:31:44.680Z,9.40
2018-12-02T08:32:44.605Z,11.60
2018-12-02T08:33:44.517Z,9.70
2018-12-02T08:34:44.431Z,10.00
2018-12-02T08:35:44.342Z,9.70
2018-12-02T08:36:44.257Z,10.50
2018-12-02T08:37:44.180Z,9.20
2018-12-02T08:38:44.094Z,11.00
2018-12-02T08:39:44.005Z,9.50
2018-12-02T08:40:43.920Z,12.20
2018-12-02T08:41:43.830Z,9.20
2018-12-02T08:42:43.763Z,9.00
2018-12-02T08:43:43.668Z,11.60
2018-12-02T08:44:43.581Z,9.80
2018-12-02T08:45:43.493Z,10.60
2018-12-02T08:46:43.418Z,9.20
2018-12-02T08:47:43.331Z,9.90
2018-12-02T08:48:43.243Z,10.20
2018-12-02T08:49:43.157Z,9.20
2018-12-02T08:50:43.095Z,11.00
2018-12-02T08:51:42.994Z,10.30
2018-12-02T08:52:42.906Z,10.20
2018-12-02T08:53:42.822Z,8.70
2018-12-02T08:54:42.732Z,9.20
2018-12-02T08:55:42.658Z,11.60
2018-12-02T08:56:42.569Z,9.50
2018-12-02T08:57:42.483Z,11.00
2018-12-02T08:58:42.395Z,9.70
2018-12-02T08:59:42.333Z,9.30
2018-12-02T09:00:42.233Z,9.70
2018-12-02T09:01:42.146Z,9.40
2018-12-02T09:02:42.057Z,9.10
2018-12-02T09:03:41.987Z,8.50
2018-12-02T09:04:41.895Z,9.70
2018-12-02T09:05:41.811Z,8.70
2018-12-02T09:06:41.720Z,9.30
2018-12-02T09:07:41.645Z,9.40
2018-12-02T09:08:41.559Z,9.50
2018-12-02T09:09:41.471Z,10.50
2018-12-02T09:10:41.384Z,9.40
2018-12-02T09:11:41.308Z,10.40
2018-12-02T09:12:41.221Z,9.00
2018-12-02T09:13:41.134Z,9.70
2018-12-02T09:14:41.047Z,8.10
2018-12-02T09:15:40.971Z,9.20
2018-12-02T09:16:40.884Z,8.10
2018-12-02T09:17:40.799Z,9.40
2018-12-02T09:18:40.709Z,10.20
2018-12-02T09:19:40.635Z,9.60
2018-12-02T09:20:40.547Z,9.30
2018-12-02T09:21:40.460Z,9.00
2018-12-02T09:22:40.373Z,9.60
2018-12-02T09:23:40.297Z,8.80
2018-12-02T09:24:40.213Z,9.10
2018-12-02T09:25:40.126Z,8.30
2018-12-02T09:26:40.037Z,8.50
2018-12-02T09:27:39.960Z,9.10
2018-12-02T09:28:39.873Z,8.30
2018-12-02T09:29:39.794Z,9.90
2018-12-02T09:30:39.699Z,7.60
2018-12-02T09:31:39.623Z,8.60
2018-12-02T09:32:39.537Z,8.10
2018-12-02T09:33:39.449Z,9.40
2018-12-02T09:34:39.362Z,8.90
2018-12-02T09:35:39.288Z,8.30
2018-12-02T09:36:39.199Z,11.10
2018-12-02T09:37:39.112Z,8.50
2018-12-02T09:38:39.023Z,8.20
2018-12-02T09:39:38.950Z,8.70
2018-12-02T09:40:38.863Z,8.30
2018-12-02T09:41:38.788Z,9.60
2018-12-02T09:42:38.687Z,7.70
2018-12-02T09:43:38.613Z,8.40
2018-12-02T09:44:38.526Z,9.30
2018-12-02T09:45:38.450Z,8.00
2018-12-02T09:46:38.351Z,9.70
2018-12-02T09:47:38.274Z,8.00
2018-12-02T09:48:38.189Z,9.00
2018-12-02T09:49:38.100Z,8.70
2018-12-02T09:50:38.028Z,7.70
2018-12-02T09:51:37.939Z,9.30
2018-12-02T09:52:37.854Z,7.50
2018-12-02T09:53:37.764Z,7.70
2018-12-02T09:54:37.690Z,8.70
2018-12-02T09:55:37.602Z,8.40
2018-12-02T09:56:37.515Z,9.60
2018-12-02T09:57:37.428Z,8.80
2018-12-02T09:58:37.351Z,7.70
2018-12-02T09:59:37.264Z,9.30
2018-12-02T10:00:37.177Z,8.80
2018-12-02T10:01:37.102Z,8.00
2018-12-02T10:02:37.016Z,7.60
2018-12-02T10:03:36.941Z,9.10
2018-12-02T10:04:36.841Z,7.70
2018-12-02T10:05:36.776Z,7.60
2018-12-02T10:06:36.678Z,7.80
2018-12-02T10:07:36.591Z,7.60
2018-12-02T10:08:36.504Z,7.50
2018-12-02T10:09:36.442Z,7.50
2018-12-02T10:10:36.341Z,9.70
2018-12-02T10:11:36.254Z,7.70
2018-12-02T10:12:36.179Z,8.30
2018-12-02T10:13:36.091Z,8.10
2018-12-02T10:14:36.003Z,7.80
2018-12-02T10:15:35.916Z,7.90
2018-12-02T10:16:35.843Z,7.30
2018-12-02T10:17:35.756Z,8.60
2018-12-02T10:18:35.667Z,8.50
2018-12-02T10:19:35.593Z,7.50
2018-12-02T10:20:35.504Z,8.20
2018-12-02T10:21:35.417Z,7.50
2018-12-02T10:22:35.329Z,7.80
2018-12-02T10:23:35.254Z,8.70
2018-12-02T10:24:35.174Z,7.30
2018-12-02T10:25:35.093Z,7.60
2018-12-02T10:26:35.017Z,8.50
2018-12-02T10:27:34.918Z,6.70
2018-12-02T10:28:34.843Z,7.20
2018-12-02T10:29:34.755Z,7.50
2018-12-02T10:30:34.669Z,7.40
2018-12-02T10:31:34.583Z,7.70
2018-12-02T10:32:34.494Z,6.40
2018-12-02T10:33:34.418Z,9.80
2018-12-02T10:34:34.331Z,6.40
2018-12-02T10:35:34.245Z,6.60
2018-12-02T10:36:34.169Z,7.20
2018-12-02T10:37:34.080Z,5.30
2018-12-02T10:38:33.995Z,7.20
2018-12-02T10:39:33.907Z,8.10
2018-12-02T10:40:33.832Z,7.20
2018-12-02T10:41:33.744Z,6.60
2018-12-02T10:42:33.661Z,6.30
2018-12-02T10:43:33.582Z,6.90
2018-12-02T10:44:33.494Z,6.00
2018-12-02T10:45:33.407Z,6.30
2018-12-02T10:46:33.331Z,6.50
2018-12-02T10:47:33.249Z,7.20
2018-12-02T10:48:33.161Z,6.80
2018-12-02T10:49:33.082Z,6.60
2018-12-02T10:50:32.995Z,6.30
2018-12-02T10:51:32.907Z,6.20
2018-12-02T10:52:32.832Z,6.20
2018-12-02T10:53:32.746Z,6.70
2018-12-02T10:54:32.659Z,7.60
2018-12-02T10:55:32.570Z,6.50
2018-12-02T10:56:32.497Z,7.00
2018-12-02T10:57:32.421Z,6.40
2018-12-02T10:58:32.320Z,8.50
2018-12-02T10:59:32.248Z,6.80
2018-12-02T11:00:32.164Z,7.90
2018-12-02T11:01:32.074Z,6.60
2018-12-02T11:02:31.998Z,5.50
2018-12-02T11:03:31.908Z,7.30
2018-12-02T11:04:31.821Z,7.20
2018-12-02T11:05:31.747Z,6.50
2018-12-02T11:06:31.659Z,7.40
2018-12-02T11:07:31.572Z,6.30
2018-12-02T11:08:31.484Z,7.10
2018-12-02T11:09:31.409Z,6.50
2018-12-02T11:10:31.322Z,6.30
2018-12-02T11:11:31.234Z,6.80
2018-12-02T11:12:31.160Z,7.40
2018-12-02T11:13:31.073Z,6.00
2018-12-02T11:14:30.984Z,7.10
2018-12-02T11:15:30.910Z,6.50
2018-12-02T11:16:30.824Z,6.50
2018-12-02T11:17:30.738Z,6.30
2018-12-02T11:18:30.649Z,7.20
2018-12-02T11:19:30.575Z,5.70
2018-12-02T11:20:30.486Z,6.10
2018-12-02T11:21:30.410Z,6.70
2018-12-02T11:22:30.324Z,6.00
2018-12-02T11:23:30.237Z,5.90
2018-12-02T11:24:30.150Z,7.70
2018-12-02T11:25:30.074Z,5.90
2018-12-02T11:26:29.986Z,5.90
2018-12-02T11:27:29.900Z,7.20
2018-12-02T11:28:29.825Z,6.20
2018-12-02T11:29:29.736Z,5.60
2018-12-02T11:30:29.650Z,6.60
2018-12-02T11:31:29.563Z,6.80
2018-12-02T11:32:29.500Z,5.40
2018-12-02T11:33:29.400Z,7.10
2018-12-02T11:34:29.317Z,6.90
2018-12-02T11:35:29.237Z,6.40
2018-12-02T11:36:29.157Z,6.20
2018-12-02T11:37:29.063Z,6.70
2018-12-02T11:38:28.988Z,5.60
2018-12-02T11:39:28.900Z,7.50
2018-12-02T11:40:28.813Z,6.10
2018-12-02T11:41:28.740Z,6.90
2018-12-02T11:42:28.651Z,6.40
2018-12-02T11:43:28.563Z,6.60
2018-12-02T11:44:28.488Z,6.60
2018-12-02T11:45:28.402Z,6.30
2018-12-02T11:46:28.326Z,6.00
2018-12-02T11:47:28.238Z,5.60
2018-12-02T11:48:28.152Z,5.80
2018-12-02T11:49:28.064Z,5.30
2018-12-02T11:50:27.989Z,7.30
2018-12-02T11:51:27.902Z,7.40
2018-12-02T11:52:27.817Z,5.10
2018-12-02T11:53:27.739Z,7.00
2018-12-02T11:54:27.652Z,6.20
2018-12-02T11:55:27.576Z,5.90
2018-12-02T11:56:27.478Z,5.30
2018-12-02T11:57:27.411Z,7.00
2018-12-02T11:58:27.316Z,8.30
2018-12-02T11:59:27.229Z,6.50
2018-12-02T12:00:27.153Z,5.80
2018-12-02T12:01:27.081Z,5.20
2018-12-02T12:02:26.978Z,7.00
2018-12-02T12:03:26.909Z,6.70
2018-12-02T12:04:26.817Z,6.80
2018-12-02T12:05:26.728Z,5.80
2018-12-02T12:06:26.654Z,5.90
2018-12-02T12:07:26.580Z,6.60
2018-12-02T12:08:26.478Z,5.70
2018-12-02T12:09:26.410Z,5.50
2018-12-02T12:10:26.316Z,6.30
2018-12-02T12:11:26.229Z,6.10
2018-12-02T12:12:26.143Z,5.70
2018-12-02T12:13:26.066Z,5.40
2018-12-02T12:14:25.979Z,5.70
2018-12-02T12:15:25.892Z,5.40
2018-12-02T12:16:25.817Z,5.30
2018-12-02T12:17:25.730Z,6.40
2018-12-02T12:18:25.642Z,5.90
2018-12-02T12:19:25.568Z,6.70
2018-12-02T12:20:25.488Z,7.00
2018-12-02T12:21:25.392Z,5.40
2018-12-02T12:22:25.318Z,6.40
2018-12-02T12:23:25.231Z,6.40
2018-12-02T12:24:25.143Z,6.30
2018-12-02T12:25:25.071Z,6.70
2018-12-02T12:26:24.981Z,6.00
2018-12-02T12:27:24.892Z,7.10
2018-12-02T12:28:24.807Z,6.20
2018-12-02T12:29:24.732Z,6.30
2018-12-02T12:30:24.643Z,6.80
2018-12-02T12:31:24.557Z,6.50
2018-12-02T12:32:24.481Z,6.90
2018-12-02T12:33:24.394Z,7.50
2018-12-02T12:34:24.307Z,7.90
2018-12-02T12:35:24.233Z,6.60
2018-12-02T12:36:24.144Z,6.40
2018-12-02T12:37:24.057Z,7.20
2018-12-02T12:38:23.971Z,7.20
2018-12-02T12:39:23.894Z,7.00
2018-12-02T12:40:23.807Z,7.10
2018-12-02T12:41:23.721Z,6.60
2018-12-02T12:42:23.647Z,7.20
2018-12-02T12:43:23.558Z,6.50
2018-12-02T12:44:23.470Z,8.20
2018-12-02T12:45:23.395Z,8.60
2018-12-02T12:46:23.309Z,8.30
2018-12-02T12:47:23.233Z,8.20
2018-12-02T12:48:23.134Z,7.60
2018-12-02T12:49:23.059Z,8.10
2018-12-02T12:50:22.970Z,9.00
2018-12-02T12:51:22.895Z,8.60
2018-12-02T12:52:22.813Z,8.50
2018-12-02T12:53:22.734Z,8.70
2018-12-02T12:54:22.634Z,7.90
2018-12-02T12:55:22.546Z,8.00
2018-12-02T12:56:22.471Z,8.00
2018-12-02T12:57:22.384Z,8.50
2018-12-02T12:58:22.300Z,7.40
2018-12-02T12:59:22.210Z,7.10
2018-12-02T13:00:22.141Z,7.30